Time;durP1;ratioP1;P1;durP2;ratioP2;P2;SDS_P1;SDS_P2;PMS_P1;PMS_P2;Temp;Humidity;BMP_temperature;BMP_pressure;BME280_temperature;BME280_humidity;BME280_pressure;Samples;Min_cycle;Max_cycle;Signal;HPM_P1;HPM_P2
2022/03/25 00:02:24;;;;;;;4.63;4.20;;;;;;;18.45;37.70;101497.84;5046907;28;20440;-46
2022/03/25 00:04:49;;;;;;;3.50;3.20;;;;;;;18.46;37.74;101512.69;5047109;28;20017;-43
2022/03/25 00:07:16;;;;;;;6.45;4.38;;;;;;;18.46;37.74;101515.31;5047163;28;20061;-46
2022/03/25 00:09:41;;;;;;;4.60;4.13;;;;;;;18.45;37.77;101514.50;5028964;28;20065;-46
2022/03/25 00:12:07;;;;;;;5.05;3.22;;;;;;;18.45;37.68;101511.03;5046685;28;20052;-44
2022/03/25 00:14:34;;;;;;;5.97;4.28;;;;;;;18.46;37.72;101515.31;5046738;28;20461;-44
2022/03/25 00:17:00;;;;;;;5.70;4.28;;;;;;;18.45;37.72;101511.03;5045371;28;20028;-42
2022/03/25 00:19:25;;;;;;;5.82;4.50;;;;;;;18.45;37.76;101513.69;5046915;28;20033;-41
2022/03/25 00:21:50;;;;;;;5.32;4.20;;;;;;;18.44;37.67;101510.22;5046678;28;20368;-44
2022/03/25 00:24:16;;;;;;;6.35;5.22;;;;;;;18.45;37.67;101513.69;5046593;28;20056;-44
2022/03/25 00:26:43;;;;;;;5.50;3.95;;;;;;;18.44;37.59;101510.22;5046737;28;20111;-45
2022/03/25 00:29:08;;;;;;;5.18;4.68;;;;;;;18.45;37.54;101508.41;5046860;28;20055;-44
2022/03/25 00:31:34;;;;;;;4.88;4.38;;;;;;;18.43;37.55;101505.94;5046579;28;20067;-45
2022/03/25 00:33:59;;;;;;;6.65;4.93;;;;;;;18.44;37.47;101504.13;5046931;28;20032;-43
2022/03/25 00:36:25;;;;;;;6.03;4.95;;;;;;;18.43;37.35;101494.59;5046782;28;20041;-44
2022/03/25 00:38:50;;;;;;;6.13;5.32;;;;;;;18.43;37.35;101497.22;5046795;28;20033;-45
2022/03/25 00:41:17;;;;;;;6.65;4.63;;;;;;;18.42;37.30;101503.50;5046921;28;20429;-43
2022/03/25 00:43:44;;;;;;;7.22;5.57;;;;;;;18.42;37.19;101495.56;5046450;28;20036;-41
2022/03/25 00:46:11;;;;;;;6.80;5.30;;;;;;;18.41;36.97;101492.13;5045098;28;20043;-42
2022/03/25 00:48:37;;;;;;;5.57;5.00;;;;;;;18.41;37.10;101491.28;5028365;28;20392;-45
2022/03/25 00:51:03;;;;;;;6.35;5.38;;;;;;;18.42;37.14;101492.94;5046290;28;20033;-44
2022/03/25 00:53:28;;;;;;;6.15;5.32;;;;;;;18.39;37.17;101488.81;5046587;28;20507;-42
2022/03/25 00:55:54;;;;;;;6.07;5.20;;;;;;;18.41;37.23;101493.94;5046322;28;20032;-43
2022/03/25 00:58:21;;;;;;;5.85;4.93;;;;;;;18.39;37.25;101485.38;5046227;28;20048;-44
2022/03/25 01:00:47;;;;;;;5.55;5.05;;;;;;;18.39;37.27;101490.63;5028205;28;20128;-46
2022/03/25 01:03:12;;;;;;;6.45;5.10;;;;;;;18.39;37.32;101488.00;5046183;28;20055;-45
2022/03/25 01:05:38;;;;;;;6.38;5.18;;;;;;;18.40;37.41;101485.19;5046352;28;20299;-44
2022/03/25 01:08:06;;;;;;;6.35;5.10;;;;;;;18.39;37.40;101485.38;5046251;28;20382;-45
2022/03/25 01:10:32;;;;;;;5.50;4.50;;;;;;;18.40;37.39;101489.66;5044633;28;20072;-44
2022/03/25 01:12:58;;;;;;;5.55;4.93;;;;;;;18.39;37.35;101478.28;5046013;28;20380;-45
2022/03/25 01:15:23;;;;;;;5.57;4.97;;;;;;;18.38;37.44;101476.63;5046446;28;20957;-45
2022/03/25 01:17:49;;;;;;;6.65;4.75;;;;;;;18.41;37.63;101486.03;5046389;28;20064;-44
2022/03/25 01:20:17;;;;;;;5.30;4.80;;;;;;;18.39;37.54;101482.72;5046082;28;20029;-41
2022/03/25 01:22:43;;;;;;;5.65;5.05;;;;;;;18.40;37.49;101482.56;5045989;28;20041;-44
2022/03/25 01:25:09;;;;;;;5.15;4.65;;;;;;;18.41;37.53;101480.75;5046047;28;20587;-43
2022/03/25 01:27:35;;;;;;;5.80;4.78;;;;;;;18.40;37.59;101485.19;5049494;28;20108;-44
2022/03/25 01:30:01;;;;;;;6.13;4.90;;;;;;;18.39;37.64;101480.09;5049788;28;20025;-44
2022/03/25 01:32:27;;;;;;;6.10;4.70;;;;;;;18.39;37.72;101482.72;5050076;28;20115;-43
2022/03/25 01:34:53;;;;;;;5.88;5.00;;;;;;;18.39;37.73;101480.91;5049892;28;20052;-46
2022/03/25 01:37:18;;;;;;;5.57;5.07;;;;;;;18.38;37.80;101484.53;5049586;28;20420;-44
2022/03/25 01:39:44;;;;;;;5.47;4.65;;;;;;;18.38;37.72;101473.16;5050009;28;20037;-45
2022/03/25 01:42:10;;;;;;;7.53;5.80;;;;;;;18.38;37.67;101475.81;5049907;28;20060;-42
2022/03/25 01:44:37;;;;;;;7.05;5.22;;;;;;;18.39;37.41;101477.44;5031664;28;20115;-42
2022/03/25 01:47:08;;;;;;;8.18;5.40;;;;;;;18.39;37.39;101474.81;5032082;28;20024;-42
2022/03/25 01:49:34;;;;;;;5.95;5.15;;;;;;;18.38;37.32;101475.81;5049806;28;20548;-44
2022/03/25 01:52:02;;;;;;;6.47;5.22;;;;;;;18.39;37.07;101472.16;5015194;28;20049;-47
2022/03/25 01:54:30;;;;;;;7.35;5.43;;;;;;;18.41;37.17;101472.81;5049594;28;20035;-42
2022/03/25 01:57:05;;;;;;;6.22;5.47;;;;;;;18.39;36.97;101466.91;5049308;28;20029;-44
2022/03/25 01:59:31;;;;;;;6.45;4.93;;;;;;;18.41;37.00;101471.00;5049502;28;20639;-45
2022/03/25 02:01:58;;;;;;;6.88;5.20;;;;;;;18.42;36.92;101466.56;5049262;28;20029;-47
2022/03/25 02:04:24;;;;;;;6.05;5.10;;;;;;;18.41;36.85;101463.09;5049299;28;20040;-46
2022/03/25 02:06:50;;;;;;;7.68;6.00;;;;;;;18.42;36.90;101462.09;5049262;28;20048;-43
2022/03/25 02:09:16;;;;;;;6.28;5.68;;;;;;;18.42;36.99;101459.47;5049191;28;20111;-42
2022/03/25 02:11:42;;;;;;;7.22;5.18;;;;;;;18.43;36.85;101460.28;5342510;22;20055;-43
2022/03/25 02:14:08;;;;;;;7.70;6.07;;;;;;;18.44;36.77;101459.25;5087962;28;20103;-43
2022/03/25 02:16:43;;;;;;;7.80;5.75;;;;;;;18.42;36.76;101458.66;5088092;28;20024;-45
2022/03/25 02:19:11;;;;;;;6.25;5.65;;;;;;;18.42;36.67;101458.66;5088106;28;20020;-47
2022/03/25 02:21:41;;;;;;;5.90;4.95;;;;;;;18.43;36.66;101455.00;5088430;28;20077;-44
2022/03/25 02:24:08;;;;;;;6.65;5.95;;;;;;;18.43;36.54;101455.00;5088050;28;20271;-44
2022/03/25 02:26:35;;;;;;;6.20;5.32;;;;;;;18.43;36.39;101449.72;5088264;28;20039;-45
2022/03/25 02:29:00;;;;;;;8.68;5.82;;;;;;;18.41;36.38;101455.19;5088202;28;20075;-43
2022/03/25 02:31:27;;;;;;;7.13;5.97;;;;;;;18.43;36.40;101455.00;5088057;28;20063;-45
2022/03/25 02:33:56;;;;;;;7.32;6.32;;;;;;;18.42;36.25;101459.47;5088025;28;20093;-40
2022/03/25 02:36:22;;;;;;;8.18;5.65;;;;;;;18.42;36.33;101462.09;5087782;28;20565;-42
2022/03/25 02:38:47;;;;;;;6.43;5.80;;;;;;;18.41;36.34;101457.81;5087719;28;20111;-45
2022/03/25 02:41:13;;;;;;;6.53;5.85;;;;;;;18.42;36.17;101456.00;5087747;28;20435;-46
2022/03/25 02:43:38;;;;;;;7.50;6.13;;;;;;;18.42;36.14;101453.38;5087818;28;20028;-43
2022/03/25 02:46:04;;;;;;;7.53;5.95;;;;;;;18.41;36.11;101457.00;5087709;28;20174;-48
2022/03/25 02:48:30;;;;;;;8.65;6.85;;;;;;;18.40;36.00;101453.53;5087530;28;20032;-44
2022/03/25 02:50:56;;;;;;;7.32;6.63;;;;;;;18.39;35.92;101453.69;5087459;28;20341;-45
2022/03/25 02:53:21;;;;;;;7.50;6.40;;;;;;;18.39;35.93;101453.69;5087567;28;20035;-44
2022/03/25 02:55:47;;;;;;;8.05;6.32;;;;;;;18.39;35.89;101456.34;5087701;28;20020;-45
2022/03/25 02:58:13;;;;;;;7.63;6.50;;;;;;;18.37;35.82;101464.44;5087707;28;20027;-46
2022/03/25 03:00:38;;;;;;;8.10;6.65;;;;;;;18.36;35.81;101460.16;5087720;28;20089;-43
2022/03/25 03:03:04;;;;;;;10.15;6.70;;;;;;;18.37;35.76;101464.44;5087554;28;20420;-42
2022/03/25 03:05:31;;;;;;;9.45;6.63;;;;;;;18.35;35.78;101461.13;5087293;28;20030;-45
2022/03/25 03:07:57;;;;;;;8.20;6.50;;;;;;;18.35;35.72;101460.31;5087625;28;20121;-43
2022/03/25 03:10:24;;;;;;;8.02;6.90;;;;;;;18.35;35.82;101460.31;5087402;28;22525;-43
2022/03/25 03:12:50;;;;;;;7.68;6.45;;;;;;;18.33;35.65;101447.28;5045861;28;1189885;-42
2022/03/25 03:15:17;;;;;;;7.30;6.35;;;;;;;18.32;35.69;101456.19;5088441;28;20044;-48
2022/03/25 03:17:47;;;;;;;8.32;6.68;;;;;;;18.32;35.72;101453.56;5069635;28;20028;-46
2022/03/25 03:20:14;;;;;;;8.35;6.43;;;;;;;18.31;35.79;101454.56;5087906;28;20020;-41
2022/03/25 03:22:40;;;;;;;9.32;7.07;;;;;;;18.32;35.40;101444.81;5087804;28;20021;-41
2022/03/25 03:25:07;;;;;;;7.78;6.65;;;;;;;18.31;35.55;101451.09;5087770;28;20032;-44
2022/03/25 03:27:32;;;;;;;8.98;6.95;;;;;;;18.31;35.53;101456.38;5087988;28;20024;-44
2022/03/25 03:29:58;;;;;;;7.63;6.57;;;;;;;18.30;35.61;101452.09;5087784;28;20105;-44
2022/03/25 03:32:28;;;;;;;7.68;6.43;;;;;;;18.32;35.46;101455.38;5087908;28;20028;-43
2022/03/25 03:34:55;;;;;;;6.65;5.95;;;;;;;18.32;35.68;101455.38;5088189;28;20032;-43
2022/03/25 03:37:21;;;;;;;8.10;6.60;;;;;;;18.33;35.53;101457.84;5087791;28;20058;-42
2022/03/25 03:39:47;;;;;;;9.85;6.68;;;;;;;18.31;35.77;101444.00;5088222;28;20375;-44
2022/03/25 03:42:12;;;;;;;7.45;6.18;;;;;;;18.34;35.71;101450.75;5087483;28;20046;-42
2022/03/25 03:44:40;;;;;;;7.03;5.82;;;;;;;18.33;35.73;101449.13;5087573;28;20540;-44
2022/03/25 03:47:06;;;;;;;8.38;6.63;;;;;;;18.33;35.83;101454.38;5087408;28;20030;-44
2022/03/25 03:49:33;;;;;;;8.30;6.68;;;;;;;18.32;35.74;101447.47;5086821;28;20038;-47
2022/03/25 03:51:58;;;;;;;8.80;6.82;;;;;;;18.32;35.73;101450.09;5087528;28;20043;-40
2022/03/25 03:54:24;;;;;;;7.53;6.40;;;;;;;18.32;35.83;101455.38;5087484;28;20032;-41
2022/03/25 03:56:49;;;;;;;10.43;7.13;;;;;;;18.32;35.77;101452.75;5086137;28;20073;-44
2022/03/25 03:59:14;;;;;;;6.68;6.07;;;;;;;18.31;35.82;101453.72;5087615;28;20044;-42
2022/03/25 04:01:40;;;;;;;8.70;7.03;;;;;;;18.30;35.80;101447.63;5087159;28;20531;-44
2022/03/25 04:04:06;;;;;;;7.68;5.82;;;;;;;18.30;35.66;101441.53;5087043;28;20450;-44
2022/03/25 04:06:32;;;;;;;8.73;6.10;;;;;;;18.28;35.76;101448.78;5087123;28;20100;-43
2022/03/25 04:08:57;;;;;;;8.45;6.25;;;;;;;18.27;35.66;101441.88;5087230;28;20113;-45
2022/03/25 04:11:23;;;;;;;9.75;7.07;;;;;;;18.26;35.75;101446.34;5086846;28;20063;-41
2022/03/25 04:13:49;;;;;;;9.60;6.80;;;;;;;18.26;35.61;101440.22;5087117;28;20067;-42
2022/03/25 04:16:14;;;;;;;7.45;6.63;;;;;;;18.24;35.63;101435.94;5087195;28;20028;-45
2022/03/25 04:18:40;;;;;;;8.27;6.65;;;;;;;18.25;35.50;101444.69;5087338;28;20502;-41
2022/03/25 04:21:06;;;;;;;9.48;6.97;;;;;;;18.23;35.71;101444.84;5086957;28;20571;-44
2022/03/25 04:23:32;;;;;;;8.55;6.43;;;;;;;18.24;35.69;101445.69;5086738;28;20059;-42
2022/03/25 04:25:57;;;;;;;7.68;6.68;;;;;;;18.23;35.53;101444.84;5086781;28;20468;-43
2022/03/25 04:28:23;;;;;;;9.80;6.15;;;;;;;18.24;35.49;101438.59;5086835;28;20411;-42
2022/03/25 04:30:49;;;;;;;8.60;6.43;;;;;;;18.26;35.32;101443.69;5086745;28;20032;-44
2022/03/25 04:33:14;;;;;;;9.30;6.43;;;;;;;18.27;35.48;101431.31;5087028;28;20048;-44
2022/03/25 04:35:40;;;;;;;9.48;7.30;;;;;;;18.28;35.50;101444.34;5086663;28;20633;-43
2022/03/25 04:38:06;;;;;;;7.22;6.50;;;;;;;18.27;35.25;101442.69;5087056;28;20032;-42
2022/03/25 04:40:32;;;;;;;7.88;6.60;;;;;;;18.29;35.18;101432.81;5087027;28;20429;-42
2022/03/25 04:42:59;;;;;;;8.77;6.95;;;;;;;18.31;35.17;101451.09;5086643;28;20486;-46
2022/03/25 04:45:26;;;;;;;8.48;7.00;;;;;;;18.31;35.08;101448.47;5086881;28;20301;-44
2022/03/25 04:47:52;;;;;;;8.40;6.57;;;;;;;18.32;35.16;101443.00;5086499;28;20107;-45
2022/03/25 04:50:18;;;;;;;9.02;6.45;;;;;;;18.32;35.04;101440.38;5086459;28;20136;-45
2022/03/25 04:52:44;;;;;;;6.45;5.85;;;;;;;18.33;35.12;101438.56;5086739;28;20395;-44
2022/03/25 04:55:11;;;;;;;8.52;6.32;;;;;;;18.34;35.01;101445.47;5087361;28;20091;-43
2022/03/25 04:57:38;;;;;;;8.90;7.07;;;;;;;18.35;34.97;101449.75;5068237;28;20035;-44
2022/03/25 05:00:04;;;;;;;10.38;7.10;;;;;;;18.35;34.98;101455.03;5087315;28;20046;-42
2022/03/25 05:02:30;;;;;;;8.30;6.90;;;;;;;18.33;35.01;101457.03;5090656;28;20552;-46
2022/03/25 05:04:55;;;;;;;8.35;7.45;;;;;;;18.32;34.93;101453.56;5090785;28;20036;-43
2022/03/25 05:07:21;;;;;;;7.97;6.57;;;;;;;18.32;34.91;101455.38;5090692;28;20550;-44
2022/03/25 05:09:47;;;;;;;7.30;6.60;;;;;;;18.31;34.84;101448.47;5090479;28;20111;-44
2022/03/25 05:12:12;;;;;;;10.80;7.05;;;;;;;18.31;34.85;101451.09;5090425;28;20063;-42
2022/03/25 05:14:39;;;;;;;12.38;7.00;;;;;;;18.30;34.74;101452.91;5090542;28;20050;-42
2022/03/25 05:17:05;;;;;;;9.57;7.10;;;;;;;18.29;34.77;101445.16;5090395;28;20039;-43
2022/03/25 05:19:32;;;;;;;10.13;7.10;;;;;;;18.27;34.54;101447.97;5090359;28;20032;-43
2022/03/25 05:21:58;;;;;;;8.95;6.82;;;;;;;18.27;34.73;101452.44;5090490;28;20355;-42
2022/03/25 05:24:24;;;;;;;8.23;6.95;;;;;;;18.26;34.82;101445.50;5090338;28;20024;-40
2022/03/25 05:26:49;;;;;;;9.48;7.10;;;;;;;18.25;34.74;101444.69;5089927;28;20081;-42
2022/03/25 05:29:15;;;;;;;8.82;7.22;;;;;;;18.25;34.78;101452.59;5090195;28;20053;-44
2022/03/25 05:31:41;;;;;;;9.27;7.05;;;;;;;18.24;34.80;101448.31;5090304;28;20382;-46
2022/03/25 05:34:06;;;;;;;9.68;7.57;;;;;;;18.23;34.74;101452.78;5090577;28;20269;-44
2022/03/25 05:36:33;;;;;;;10.77;7.65;;;;;;;18.22;34.68;101451.13;5090229;28;20028;-42
2022/03/25 05:38:59;;;;;;;8.63;7.25;;;;;;;18.20;34.78;101455.75;5089846;28;20020;-45
2022/03/25 05:41:26;;;;;;;10.95;7.32;;;;;;;18.22;34.60;101460.84;5090065;28;20043;-43
2022/03/25 05:43:52;;;;;;;9.80;7.28;;;;;;;18.20;34.74;101461.03;5090170;28;20327;-43
2022/03/25 05:46:18;;;;;;;9.23;7.60;;;;;;;18.19;34.75;101456.75;5090002;28;20020;-43
2022/03/25 05:48:45;;;;;;;12.82;7.78;;;;;;;18.19;34.66;101462.00;5090164;28;20020;-44
2022/03/25 05:51:11;;;;;;;9.95;7.13;;;;;;;18.18;34.72;101465.63;5089717;28;20097;-45
2022/03/25 05:53:37;;;;;;;9.38;7.03;;;;;;;18.20;34.54;101470.75;5090178;28;20028;-46
2022/03/25 05:56:03;;;;;;;10.48;7.20;;;;;;;18.19;34.63;101472.56;5089684;28;20027;-41
2022/03/25 05:58:33;;;;;;;11.55;7.50;;;;;;;18.20;34.59;101473.38;5089329;28;20032;-44
2022/03/25 06:00:59;;;;;;;12.00;7.28;;;;;;;18.20;34.43;101476.84;5089636;28;20052;-41
2022/03/25 06:03:25;;;;;;;8.07;7.07;;;;;;;18.21;34.23;101481.13;5089762;28;20123;-42
2022/03/25 06:05:50;;;;;;;7.88;6.47;;;;;;;18.21;34.38;101481.13;5089451;28;20543;-44
2022/03/25 06:08:16;;;;;;;8.18;6.45;;;;;;;18.22;34.42;101479.31;5089543;28;20093;-42
2022/03/25 06:10:41;;;;;;;8.85;7.60;;;;;;;18.22;34.45;101480.13;5089379;28;20028;-44
2022/03/25 06:13:07;;;;;;;8.73;7.15;;;;;;;18.21;34.34;101470.59;5088293;28;20127;-45
2022/03/25 06:15:33;;;;;;;8.98;7.07;;;;;;;18.21;34.37;101473.22;5089398;28;20060;-42
2022/03/25 06:17:58;;;;;;;11.15;7.25;;;;;;;18.22;34.46;101481.94;5089367;28;20079;-45
2022/03/25 06:20:24;;;;;;;10.85;7.28;;;;;;;18.21;34.39;101477.66;5089338;28;20107;-42
2022/03/25 06:22:49;;;;;;;10.93;7.60;;;;;;;18.19;34.53;101483.13;5088934;28;20081;-41
2022/03/25 06:25:16;;;;;;;9.70;7.47;;;;;;;18.19;34.56;101487.56;5089425;28;20020;-44
2022/03/25 06:27:50;;;;;;;8.68;6.28;;;;;;;18.18;34.63;101492.00;5089239;28;20036;-44
2022/03/25 06:30:17;;;;;;;8.48;7.25;;;;;;;18.17;34.71;101486.91;5088807;28;20508;-41
2022/03/25 06:32:43;;;;;;;9.55;7.40;;;;;;;18.17;34.83;101492.19;5070670;28;20020;-45
2022/03/25 06:35:09;;;;;;;8.90;6.57;;;;;;;18.16;34.70;101488.72;5088935;28;20502;-41
2022/03/25 06:37:35;;;;;;;9.68;6.82;;;;;;;18.17;34.74;101486.91;5088752;28;20020;-42
2022/03/25 06:40:01;;;;;;;7.68;6.65;;;;;;;18.15;34.69;101489.72;5088588;28;20031;-43
2022/03/25 06:42:27;;;;;;;9.20;7.05;;;;;;;18.15;34.87;101497.63;5088686;28;20020;-45
2022/03/25 06:44:52;;;;;;;9.38;6.80;;;;;;;18.15;34.90;101492.34;5088856;28;20095;-44
2022/03/25 06:47:18;;;;;;;8.45;6.45;;;;;;;18.14;34.97;101490.72;5088744;28;20059;-45
2022/03/25 06:49:44;;;;;;;7.68;6.68;;;;;;;18.14;35.05;101490.72;5088681;28;20024;-45
2022/03/25 06:52:10;;;;;;;8.50;6.72;;;;;;;18.14;35.04;101488.06;5088675;28;20028;-42
2022/03/25 06:54:36;;;;;;;8.50;6.50;;;;;;;18.13;35.07;101496.97;5088556;28;20024;-47
2022/03/25 06:57:01;;;;;;;9.25;6.65;;;;;;;18.13;35.12;101490.88;5088357;28;20364;-45
2022/03/25 06:59:27;;;;;;;9.75;7.30;;;;;;;18.13;34.89;101494.34;5088269;28;20067;-42
2022/03/25 07:01:53;;;;;;;7.43;6.30;;;;;;;18.14;35.11;101489.88;5070376;28;20024;-46
2022/03/25 07:04:19;;;;;;;9.57;6.40;;;;;;;18.15;35.08;101496.81;5088486;28;20066;-42
2022/03/25 07:06:49;;;;;;;10.38;6.28;;;;;;;18.16;35.19;101498.44;5088162;28;20586;-43
2022/03/25 07:09:14;;;;;;;7.45;6.50;;;;;;;18.17;34.92;101500.09;5088264;28;20032;-45
2022/03/25 07:11:40;;;;;;;8.65;6.80;;;;;;;18.19;35.02;101498.94;5087875;28;20487;-45
2022/03/25 07:14:06;;;;;;;7.93;6.35;;;;;;;18.20;34.92;101499.75;5088246;28;20080;-43
2022/03/25 07:16:32;;;;;;;8.02;6.75;;;;;;;18.21;34.91;101496.94;5088273;28;20056;-43
2022/03/25 07:18:59;;;;;;;7.65;6.28;;;;;;;18.22;34.85;101489.88;5088335;28;20031;-44
2022/03/25 07:21:25;;;;;;;9.10;7.07;;;;;;;18.23;34.86;101494.97;5087997;28;20422;-44
2022/03/25 07:23:51;;;;;;;7.00;5.93;;;;;;;18.23;34.72;101494.97;5086808;28;20506;-42
2022/03/25 07:26:17;;;;;;;6.70;5.60;;;;;;;18.26;34.83;101495.63;5088127;28;20024;-42
2022/03/25 07:28:43;;;;;;;7.97;6.93;;;;;;;18.27;34.76;101494.63;5087774;28;20499;-45
2022/03/25 07:31:08;;;;;;;8.77;6.13;;;;;;;18.26;34.75;101499.09;5087816;28;20074;-43
2022/03/25 07:33:35;;;;;;;8.13;6.65;;;;;;;18.27;34.70;101499.91;5087948;28;20112;-42
2022/03/25 07:36:00;;;;;;;8.07;6.45;;;;;;;18.26;34.75;101495.63;5087515;28;20116;-45
2022/03/25 07:38:27;;;;;;;8.40;7.38;;;;;;;18.26;34.72;101498.25;5087537;28;20027;-42
2022/03/25 07:40:54;;;;;;;7.65;6.60;;;;;;;18.26;34.76;101499.09;5087620;28;20032;-44
2022/03/25 07:43:19;;;;;;;9.77;6.95;;;;;;;18.24;34.64;101504.53;5087742;28;20028;-41
2022/03/25 07:45:54;;;;;;;8.80;6.78;;;;;;;18.24;34.69;101507.16;5105088;27;20383;-43
2022/03/25 07:48:19;;;;;;;7.55;6.30;;;;;;;18.22;34.80;101503.88;5104530;28;20059;-41
2022/03/25 07:50:45;;;;;;;9.02;6.50;;;;;;;18.22;34.81;101503.88;5104347;28;20055;-44
2022/03/25 07:53:10;;;;;;;8.68;6.82;;;;;;;18.21;34.89;101502.22;5104433;28;20134;-43
2022/03/25 07:55:36;;;;;;;9.02;6.95;;;;;;;18.21;34.76;101507.50;5104580;28;20039;-42
2022/03/25 07:58:02;;;;;;;11.50;6.85;;;;;;;18.20;34.82;101499.75;5104545;28;20024;-43
2022/03/25 08:00:27;;;;;;;10.20;6.55;;;;;;;18.19;34.86;101496.31;5104583;28;20028;-42
2022/03/25 08:02:53;;;;;;;9.13;6.80;;;;;;;18.19;34.98;101493.66;5104217;28;20364;-43
2022/03/25 08:05:20;;;;;;;6.88;6.10;;;;;;;18.18;34.88;101496.47;5104360;28;20150;-40
2022/03/25 08:07:55;;;;;;;8.20;7.15;;;;;;;18.16;34.89;101499.28;5103986;28;20378;-43
2022/03/25 08:10:22;;;;;;;;;;;;;;;18.08;34.99;101494.00;5104590;28;20479;-46
2022/03/25 08:12:49;;;;;;;8.18;6.85;;;;;;;18.10;35.01;101488.56;5104367;28;19947;-41
2022/03/25 08:15:15;;;;;;;7.93;6.90;;;;;;;18.13;34.93;101489.06;5104016;28;20082;-42
2022/03/25 08:17:49;;;;;;;7.63;6.55;;;;;;;18.13;34.94;101491.69;5103935;28;20448;-39
2022/03/25 08:20:28;;;;;;;7.25;6.40;;;;;;;18.14;34.88;101493.34;5104309;28;20085;-42
2022/03/25 08:22:58;;;;;;;11.68;7.32;;;;;;;18.16;34.81;101488.72;5103972;28;20063;-43
2022/03/25 08:28:09;;;;;;;7.73;6.60;;;;;;;18.17;34.79;101485.09;5104228;28;20495;-43
2022/03/25 08:30:35;;;;;;;7.68;6.53;;;;;;;18.18;34.80;101486.75;5103519;28;20057;-45
2022/03/25 08:33:02;;;;;;;7.45;6.18;;;;;;;18.19;34.77;101479.66;5104029;28;20166;-42
2022/03/25 08:35:28;;;;;;;7.80;6.63;;;;;;;18.19;34.72;101485.75;5103719;28;20341;-40
2022/03/25 08:37:54;;;;;;;7.40;6.18;;;;;;;18.19;34.65;101483.13;5103689;28;20160;-43
2022/03/25 08:40:21;;;;;;;8.10;6.15;;;;;;;18.19;34.75;101483.13;5103627;28;20081;-43
2022/03/25 08:42:47;;;;;;;8.52;6.97;;;;;;;18.19;34.89;101482.28;5103213;28;20028;-42
2022/03/25 08:45:15;;;;;;;8.55;6.75;;;;;;;18.18;34.83;101473.56;5103171;28;20060;-46
2022/03/25 08:47:41;;;;;;;8.23;6.13;;;;;;;18.18;34.83;101475.38;5103351;28;20111;-43
2022/03/25 08:50:09;;;;;;;8.82;6.20;;;;;;;18.17;34.76;101474.53;5103607;28;20058;-43
2022/03/25 08:52:35;;;;;;;6.82;5.95;;;;;;;18.17;34.81;101479.00;5119037;28;20125;-44
2022/03/25 08:55:01;;;;;;;8.18;6.63;;;;;;;18.16;34.81;101474.72;5102830;28;20036;-41
2022/03/25 08:57:27;;;;;;;9.38;6.70;;;;;;;18.15;34.74;101478.34;5089271;28;20035;-46
2022/03/25 08:59:52;;;;;;;7.28;6.57;;;;;;;18.15;34.85;101476.53;5089402;28;20050;-41
2022/03/25 09:02:18;;;;;;;9.93;7.22;;;;;;;18.14;34.92;101469.59;5089516;28;20024;-41
2022/03/25 09:04:44;;;;;;;7.50;6.13;;;;;;;18.14;34.85;101474.06;5089561;28;20336;-45
2022/03/25 09:07:12;;;;;;;8.32;6.72;;;;;;;18.15;34.74;101471.25;5088104;28;20024;-43
2022/03/25 09:09:38;;;;;;;7.65;6.13;;;;;;;18.13;34.66;101465.31;5089533;28;20032;-43
2022/03/25 09:12:03;;;;;;;7.70;6.32;;;;;;;18.13;34.92;101465.31;5089839;28;20024;-42
2022/03/25 09:14:29;;;;;;;8.25;6.18;;;;;;;18.13;34.85;101467.97;5089300;28;20042;-40
2022/03/25 09:16:54;;;;;;;7.10;6.03;;;;;;;18.13;34.91;101470.59;5089718;28;20035;-43
2022/03/25 09:19:20;;;;;;;7.07;6.03;;;;;;;18.13;34.83;101473.25;5089654;28;20028;-44
2022/03/25 09:21:45;;;;;;;7.68;6.07;;;;;;;18.12;34.89;101463.69;5089287;28;20028;-46
2022/03/25 09:24:12;;;;;;;6.93;6.03;;;;;;;18.13;34.93;101472.41;5089251;28;20035;-42
2022/03/25 09:26:37;;;;;;;10.82;7.18;;;;;;;18.13;34.97;101467.97;5087966;28;20058;-40
2022/03/25 09:29:03;;;;;;;6.30;5.50;;;;;;;18.12;34.90;101465.50;5089027;28;20028;-41
2022/03/25 09:31:29;;;;;;;7.63;6.35;;;;;;;18.13;34.79;101461.88;5089209;28;20148;-40
2022/03/25 09:35:08;;;;;;;7.65;5.63;;;;;;;18.14;35.03;101450.31;5089260;28;20171;-44
2022/03/25 09:36:40;;;;;;;9.70;6.35;;;;;;;18.13;35.06;101461.88;5088914;28;20036;-45
2022/03/25 09:39:05;;;;;;;6.55;5.68;;;;;;;18.13;35.07;101449.50;5089329;28;20031;-44
2022/03/25 09:41:31;;;;;;;6.88;5.32;;;;;;;18.15;35.19;101450.16;5089462;28;20520;-41
2022/03/25 09:43:56;;;;;;;6.18;5.18;;;;;;;18.17;35.18;101442.06;5088693;28;20510;-39
2022/03/25 09:46:22;;;;;;;6.43;5.72;;;;;;;18.18;34.94;101446.34;5089006;28;20080;-42
2022/03/25 09:48:47;;;;;;;7.15;5.55;;;;;;;18.18;34.96;101436.63;5088961;28;20031;-45
2022/03/25 09:51:13;;;;;;;7.03;5.57;;;;;;;18.18;34.98;101441.91;5088929;28;20467;-44
2022/03/25 09:53:39;;;;;;;7.00;5.60;;;;;;;18.21;35.07;101440.75;5088777;28;20499;-42
2022/03/25 09:56:06;;;;;;;6.20;5.22;;;;;;;18.20;35.08;101426.72;5088308;28;20028;-42
2022/03/25 09:58:31;;;;;;;7.22;5.60;;;;;;;18.21;35.18;101423.09;5088715;28;20069;-40
2022/03/25 10:00:59;;;;;;;7.03;5.82;;;;;;;18.22;35.16;101424.75;5088529;28;20168;-43
2022/03/25 10:03:32;;;;;;;7.70;5.78;;;;;;;18.23;35.16;101428.22;5086909;28;20105;-46
2022/03/25 10:05:59;;;;;;;7.40;5.85;;;;;;;18.23;35.15;101426.38;5088468;28;20027;-40
2022/03/25 10:08:30;;;;;;;6.70;5.53;;;;;;;18.22;35.16;101422.09;5087210;28;20075;-43
2022/03/25 10:10:55;;;;;;;6.18;5.57;;;;;;;18.24;35.27;101414.03;5088442;28;20024;-45
2022/03/25 10:13:21;;;;;;;5.80;4.72;;;;;;;18.24;35.19;101417.47;5088240;28;20039;-42
2022/03/25 10:15:46;;;;;;;7.80;5.70;;;;;;;18.24;35.17;101411.38;5088087;28;20421;-45
2022/03/25 10:18:12;;;;;;;8.30;4.90;;;;;;;18.23;35.22;101400.00;5088282;28;20030;-41
2022/03/25 10:20:43;;;;;;;6.15;5.50;;;;;;;18.22;35.03;101408.09;5087986;28;20024;-47
2022/03/25 10:23:13;;;;;;;7.43;5.47;;;;;;;18.21;35.13;101396.72;5088427;28;20025;-44
2022/03/25 10:25:47;;;;;;;8.60;5.60;;;;;;;18.21;35.34;101395.91;5103335;28;20028;-43
2022/03/25 10:28:24;;;;;;;5.88;5.20;;;;;;;18.20;35.19;101394.25;5103341;28;20119;-41
2022/03/25 10:30:52;;;;;;;7.43;5.63;;;;;;;18.21;35.19;101394.09;5087644;28;20031;-44
2022/03/25 10:33:22;;;;;;;5.95;4.72;;;;;;;18.19;35.26;101390.81;5088039;28;20038;-42
2022/03/25 10:36:10;;;;;;;6.50;5.22;;;;;;;18.17;35.43;101387.50;5087979;28;20065;-44
2022/03/25 10:38:48;;;;;;;7.30;5.22;;;;;;;18.17;35.37;101384.88;5087853;28;20053;-43
2022/03/25 10:41:20;;;;;;;5.30;4.65;;;;;;;18.19;35.43;101379.44;5087604;28;20272;-41
2022/03/25 10:44:05;;;;;;;5.68;5.07;;;;;;;18.17;35.59;101384.88;5087187;28;20044;-47
2022/03/25 10:46:34;;;;;;;6.75;5.18;;;;;;;18.18;35.65;101378.59;5087870;28;20028;-43
2022/03/25 10:49:05;;;;;;;5.68;4.70;;;;;;;18.20;35.50;101381.06;5087856;28;20103;-43
2022/03/25 10:51:31;;;;;;;5.57;4.90;;;;;;;18.21;35.57;101380.91;5087843;28;20043;-43
2022/03/25 10:54:00;;;;;;;6.13;5.07;;;;;;;18.22;35.50;101376.44;5087470;28;20028;-44
2022/03/25 10:56:27;;;;;;;6.40;5.20;;;;;;;18.22;35.49;101381.72;5087259;28;20036;-43
2022/03/25 10:58:55;;;;;;;6.15;4.95;;;;;;;18.21;35.42;101375.63;5087216;28;20523;-39
2022/03/25 11:01:22;;;;;;;6.32;5.00;;;;;;;18.21;35.40;101375.63;5087251;28;20468;-43
2022/03/25 11:03:51;;;;;;;4.90;4.20;;;;;;;18.21;35.62;101375.63;5087254;28;20055;-42
2022/03/25 11:06:20;;;;;;;9.65;5.97;;;;;;;18.22;35.54;101365.91;5087453;28;20066;-42
2022/03/25 11:08:47;;;;;;;5.47;4.88;;;;;;;18.21;35.54;101362.44;5087134;28;20028;-43
2022/03/25 11:11:15;;;;;;;5.95;4.93;;;;;;;18.21;35.55;101364.25;5086962;28;20082;-40
2022/03/25 11:13:43;;;;;;;5.75;4.70;;;;;;;18.21;35.66;101359.78;5087477;28;20038;-42
2022/03/25 11:16:13;;;;;;;5.55;4.60;;;;;;;18.20;35.78;101360.78;5087112;28;20042;-41
2022/03/25 11:18:41;;;;;;;5.65;4.88;;;;;;;18.20;35.71;101355.50;5086765;28;20312;-46
2022/03/25 11:21:08;;;;;;;4.30;3.90;;;;;;;18.19;35.81;101356.50;5087213;28;20416;-40
2022/03/25 11:23:51;;;;;;;4.88;4.30;;;;;;;18.18;35.77;101354.03;5087316;28;20489;-43
2022/03/25 11:26:20;;;;;;;5.13;4.60;;;;;;;18.18;35.85;101340.84;5087118;28;20024;-43